createdAt,value
2023-12-16T00:02:18.682Z,99799.59
2023-12-16T00:04:46.219Z,99813.13
2023-12-16T00:07:13.871Z,99815.84
2023-12-16T00:09:41.277Z,99806.06
2023-12-16T00:12:09.912Z,99807.13
2023-12-16T00:14:38.194Z,99819.56
2023-12-16T00:17:06.034Z,99802.78
2023-12-16T00:19:35.141Z,99813.38
2023-12-16T00:22:02.762Z,99811.97
2023-12-16T00:24:30.182Z,99818.16
2023-12-16T00:26:57.693Z,99824.41
2023-12-16T00:29:25.229Z,99819.84
2023-12-16T00:31:53.700Z,99804.88
2023-12-16T00:34:21.312Z,99804.66
2023-12-16T00:36:50.106Z,99801.13
2023-12-16T00:39:17.606Z,99803.00
2023-12-16T00:41:44.991Z,99809.25
2023-12-16T00:44:12.386Z,99811.97
2023-12-16T00:46:39.821Z,99815.47
2023-12-16T00:49:07.430Z,99821.72
2023-12-16T00:51:34.736Z,99820.88
2023-12-16T00:54:03.545Z,99812.75
2023-12-16T00:56:31.052Z,99810.88
2023-12-16T00:58:58.446Z,99820.06
2023-12-16T01:01:25.997Z,99825.47
2023-12-16T01:03:53.389Z,99836.28
2023-12-16T01:06:20.929Z,99834.38
2023-12-16T01:08:48.469Z,99832.53
2023-12-16T01:11:17.293Z,99836.28
2023-12-16T01:13:44.747Z,99841.69
2023-12-16T01:16:12.214Z,99844.41
2023-12-16T01:18:39.775Z,99852.50
2023-12-16T01:21:07.471Z,99851.69
2023-12-16T01:23:34.929Z,99834.63
2023-12-16T01:26:02.421Z,99840.03
2023-12-16T01:28:31.258Z,99838.16
2023-12-16T01:30:58.778Z,99844.63
2023-12-16T01:33:26.241Z,99855.22
2023-12-16T01:35:53.682Z,99850.84
2023-12-16T01:38:21.110Z,99842.16
2023-12-16T01:40:48.755Z,99848.13
2023-12-16T01:43:16.108Z,99854.63
2023-12-16T01:45:45.416Z,99859.19
2023-12-16T01:48:14.073Z,99850.03
2023-12-16T01:50:41.752Z,99849.22
2023-12-16T01:53:09.429Z,99853.78
2023-12-16T01:55:36.861Z,99846.72
2023-12-16T01:58:05.505Z,99841.31
2023-12-16T02:00:33.512Z,99859.19
2023-12-16T02:03:03.722Z,99862.16
2023-12-16T02:05:31.176Z,99856.75
2023-12-16T02:07:58.572Z,99868.34
2023-12-16T02:10:26.145Z,99864.84
2023-12-16T02:12:53.508Z,99859.44
2023-12-16T02:15:21.539Z,99874.59
2023-12-16T02:17:49.018Z,99880.00
2023-12-16T02:20:18.048Z,99878.38
2023-12-16T02:22:47.471Z,99878.38
2023-12-16T02:25:16.791Z,99870.72
2023-12-16T02:27:44.713Z,99872.97
2023-12-16T02:30:12.959Z,99870.50
2023-12-16T02:32:42.387Z,99876.69
2023-12-16T02:35:10.136Z,99865.88
2023-12-16T02:37:38.018Z,99874.00
2023-12-16T02:40:07.208Z,99877.53
2023-12-16T02:42:36.066Z,99864.25
2023-12-16T02:45:03.978Z,99860.47
2023-12-16T02:47:32.551Z,99859.69
2023-12-16T02:50:00.251Z,99857.78
2023-12-16T02:52:27.750Z,99861.53
2023-12-16T02:54:55.245Z,99868.59
2023-12-16T02:57:22.872Z,99868.59
2023-12-16T02:59:51.658Z,99872.34
2023-12-16T03:02:19.128Z,99873.19
2023-12-16T03:04:46.865Z,99877.53
2023-12-16T03:07:14.436Z,99869.66
2023-12-16T03:09:41.930Z,99863.19
2023-12-16T03:12:09.427Z,99869.66
2023-12-16T03:14:38.972Z,99869.66
2023-12-16T03:17:07.961Z,99875.91
2023-12-16T03:19:35.819Z,99863.63
2023-12-16T03:22:03.470Z,99864.25
2023-12-16T03:24:30.780Z,99874.22
2023-12-16T03:26:58.184Z,99877.75
2023-12-16T03:29:25.651Z,99887.53
2023-12-16T03:31:54.482Z,99893.16
2023-12-16T03:34:23.606Z,99890.44
2023-12-16T03:36:51.132Z,99896.91
2023-12-16T03:39:18.625Z,99889.66
2023-12-16T03:41:46.089Z,99886.94
2023-12-16T03:44:13.714Z,99886.09
2023-12-16T03:46:40.928Z,99895.06
2023-12-16T03:49:08.444Z,99891.50
2023-12-16T03:51:37.302Z,99899.63
2023-12-16T03:54:04.822Z,99893.38
2023-12-16T03:56:32.411Z,99885.28
2023-12-16T03:58:59.821Z,99893.38
2023-12-16T04:01:27.304Z,99891.75
2023-12-16T04:03:54.789Z,99896.91
2023-12-16T04:06:22.207Z,99902.56
2023-12-16T04:08:50.965Z,99901.75
2023-12-16T04:11:18.441Z,99896.09
2023-12-16T04:13:45.931Z,99890.94
2023-12-16T04:16:13.473Z,99890.09
2023-12-16T04:18:41.123Z,99894.44
2023-12-16T04:21:08.750Z,99897.16
2023-12-16T04:23:36.241Z,99896.34
2023-12-16T04:26:08.312Z,99897.16
2023-12-16T04:28:36.163Z,99896.34
2023-12-16T04:31:03.989Z,99891.75
2023-12-16T04:33:31.546Z,99890.94
2023-12-16T04:35:58.996Z,99883.63
2023-12-16T04:38:26.387Z,99894.22
2023-12-16T04:40:53.889Z,99897.16
2023-12-16T04:43:22.722Z,99897.16
2023-12-16T04:45:50.265Z,99897.97
2023-12-16T04:48:17.919Z,99896.34
2023-12-16T04:50:45.281Z,99897.97
2023-12-16T04:53:12.761Z,99892.56
2023-12-16T04:55:40.236Z,99883.63
2023-12-16T04:58:07.769Z,99891.75
2023-12-16T05:00:36.529Z,99891.75
2023-12-16T05:03:04.794Z,99900.69
2023-12-16T05:05:32.278Z,99892.81
2023-12-16T05:07:59.787Z,99894.44
2023-12-16T05:10:27.261Z,99897.16
2023-12-16T05:12:54.716Z,99902.56
2023-12-16T05:15:22.167Z,99897.16
2023-12-16T05:17:50.976Z,99907.16
2023-12-16T05:20:18.648Z,99910.91
2023-12-16T05:22:45.857Z,99911.72
2023-12-16T05:25:13.428Z,99906.31
2023-12-16T05:27:41.329Z,99917.13
2023-12-16T05:30:11.043Z,99916.31
2023-12-16T05:32:38.874Z,99918.78
2023-12-16T05:35:08.721Z,99910.91
2023-12-16T05:37:36.400Z,99906.31
2023-12-16T05:40:05.033Z,99917.97
2023-12-16T05:42:32.566Z,99917.13
2023-12-16T05:45:00.103Z,99912.56
2023-12-16T05:47:27.911Z,99914.44
2023-12-16T05:49:55.632Z,99911.72
2023-12-16T05:52:24.601Z,99905.50
2023-12-16T05:54:52.053Z,99904.69
2023-12-16T05:57:19.454Z,99908.41
2023-12-16T05:59:46.900Z,99911.13
2023-12-16T06:02:14.494Z,99913.81
2023-12-16T06:04:43.626Z,99911.13
2023-12-16T06:07:11.064Z,99918.19
2023-12-16T06:09:39.818Z,99923.59
2023-12-16T06:12:07.815Z,99927.13
2023-12-16T06:14:35.315Z,99924.41
2023-12-16T06:17:02.829Z,99924.63
2023-12-16T06:19:30.321Z,99920.91
2023-12-16T06:21:57.926Z,99930.03
2023-12-16T06:24:25.222Z,99937.13
2023-12-16T06:26:54.435Z,99925.94
2023-12-16T06:29:21.930Z,99932.53
2023-12-16T06:31:49.390Z,99935.22
2023-12-16T06:34:19.948Z,99936.06
2023-12-16T06:36:47.497Z,99931.72
2023-12-16T06:39:14.914Z,99928.19
2023-12-16T06:41:42.336Z,99927.13
2023-12-16T06:44:11.153Z,99927.13
2023-12-16T06:46:38.754Z,99930.03
2023-12-16T06:49:06.215Z,99940.84
2023-12-16T06:51:33.721Z,99934.41
2023-12-16T06:54:01.228Z,99930.88
2023-12-16T06:56:28.528Z,99932.75
2023-12-16T06:58:56.994Z,99940.84
2023-12-16T07:01:26.304Z,99941.34
2023-12-16T07:03:53.877Z,99953.13
2023-12-16T07:06:21.426Z,99941.69
2023-12-16T07:08:49.061Z,99945.25
2023-12-16T07:11:16.296Z,99940.84
2023-12-16T07:13:43.679Z,99950.66
2023-12-16T07:16:15.595Z,99941.69
2023-12-16T07:18:44.443Z,99950.66
2023-12-16T07:21:11.999Z,99954.16
2023-12-16T07:23:39.320Z,99951.44
2023-12-16T07:26:06.958Z,99949.59
2023-12-16T07:28:34.653Z,99955.00
2023-12-16T07:31:02.452Z,99959.56
2023-12-16T07:33:30.229Z,99957.91
2023-12-16T07:35:59.077Z,99955.00
2023-12-16T07:38:26.472Z,99956.84
2023-12-16T07:40:53.901Z,99964.97
2023-12-16T07:43:21.370Z,99968.50
2023-12-16T07:45:49.035Z,99964.97
2023-12-16T07:48:16.553Z,99976.63
2023-12-16T07:50:44.014Z,99981.19
2023-12-16T07:53:12.848Z,99979.78
2023-12-16T07:55:40.406Z,99982.47
2023-12-16T07:58:07.881Z,99988.72
2023-12-16T08:00:35.392Z,99987.88
2023-12-16T08:03:02.933Z,99984.13
2023-12-16T08:05:30.358Z,99992.22
2023-12-16T08:07:57.829Z,99994.13
2023-12-16T08:10:26.563Z,99987.88
2023-12-16T08:12:53.966Z,99997.63
2023-12-16T08:15:21.474Z,99996.00
2023-12-16T08:17:49.134Z,100003.66
2023-12-16T08:20:16.716Z,100007.78
2023-12-16T08:22:44.202Z,100008.63
2023-12-16T08:25:11.877Z,100009.19
2023-12-16T08:27:41.162Z,100018.97
2023-12-16T08:30:09.777Z,100006.03
2023-12-16T08:32:37.296Z,100016.41
2023-12-16T08:35:05.865Z,100018.03
2023-12-16T08:37:33.499Z,100017.47
2023-12-16T08:40:01.216Z,100022.38
2023-12-16T08:42:28.775Z,100014.06
2023-12-16T08:44:57.610Z,100027.97
2023-12-16T08:47:25.101Z,100031.47
2023-12-16T08:49:52.749Z,100022.78
2023-12-16T08:52:20.421Z,100036.41
2023-12-16T08:54:47.783Z,100038.34
2023-12-16T08:57:15.431Z,100034.22
2023-12-16T08:59:42.779Z,100029.72
2023-12-16T09:02:11.620Z,100038.06
2023-12-16T09:04:39.112Z,100042.78
2023-12-16T09:07:06.725Z,100048.09
2023-12-16T09:09:34.288Z,100051.78
2023-12-16T09:12:01.750Z,100055.59
2023-12-16T09:14:29.338Z,100051.81
2023-12-16T09:16:56.868Z,100047.53
2023-12-16T09:19:25.911Z,100051.94
2023-12-16T09:21:53.645Z,100049.88
2023-12-16T09:24:22.002Z,100045.47
2023-12-16T09:26:49.547Z,100050.97
2023-12-16T09:29:17.331Z,100053.88
2023-12-16T09:31:45.275Z,100042.19
2023-12-16T09:34:12.996Z,100043.13
2023-12-16T09:36:42.047Z,100051.81
2023-12-16T09:39:11.317Z,100056.63
2023-12-16T09:41:44.118Z,100051.19
2023-12-16T09:44:16.653Z,100040.72
2023-12-16T09:46:45.477Z,100051.78
2023-12-16T09:49:14.230Z,100042.81
2023-12-16T09:51:46.500Z,100041.78
2023-12-16T09:54:17.142Z,100047.44
2023-12-16T09:56:46.849Z,100056.31
2023-12-16T09:59:17.233Z,100046.41
2023-12-16T10:01:51.202Z,100047.72
2023-12-16T10:04:18.836Z,100048.81
2023-12-16T10:06:47.962Z,100034.41
2023-12-16T10:09:15.504Z,100030.28
2023-12-16T10:11:42.998Z,100023.16
2023-12-16T10:14:12.712Z,100024.81
2023-12-16T10:16:41.362Z,100025.16
2023-12-16T10:19:09.013Z,100023.38
2023-12-16T10:21:36.726Z,100027.56
2023-12-16T10:24:06.257Z,100030.50
2023-12-16T10:26:36.889Z,100018.72
2023-12-16T10:29:07.047Z,100010.69
2023-12-16T10:31:35.878Z,100006.56
2023-12-16T10:34:03.673Z,100011.91
2023-12-16T10:36:31.722Z,100009.44
2023-12-16T10:38:59.611Z,99998.16
2023-12-16T10:41:28.457Z,100009.19
2023-12-16T10:43:57.640Z,99998.00
2023-12-16T10:46:31.121Z,100003.59
2023-12-16T10:49:01.765Z,100009.22
2023-12-16T10:51:30.772Z,100003.38
2023-12-16T10:54:04.577Z,100000.78
2023-12-16T10:56:40.823Z,99999.53
2023-12-16T10:59:19.351Z,100011.09
2023-12-16T11:01:57.871Z,100005.81
2023-12-16T11:04:26.855Z,100000.81
2023-12-16T11:07:05.193Z,100004.72
2023-12-16T11:09:32.786Z,100003.59
2023-12-16T11:12:03.402Z,99998.66
2023-12-16T11:14:34.741Z,99998.91
2023-12-16T11:17:12.338Z,99988.41
2023-12-16T11:19:45.567Z,99983.38
2023-12-16T11:22:16.516Z,99981.06
2023-12-16T11:24:45.412Z,99978.25
2023-12-16T11:27:16.028Z,99986.41
2023-12-16T11:29:43.951Z,99987.16
2023-12-16T11:32:12.556Z,99998.38
2023-12-16T11:34:44.558Z,99982.22
2023-12-16T11:37:12.657Z,99979.88
2023-12-16T11:39:41.940Z,99980.38
2023-12-16T11:42:16.322Z,99986.81
2023-12-16T11:44:53.468Z,99978.81
2023-12-16T11:47:22.708Z,99979.03
2023-12-16T11:49:50.981Z,99975.16
2023-12-16T11:52:21.882Z,99974.00
2023-12-16T11:54:53.580Z,99963.34
2023-12-16T11:57:23.371Z,99971.50
2023-12-16T11:59:54.822Z,99978.28
2023-12-16T12:02:22.783Z,99984.97
2023-12-16T12:04:50.942Z,99972.22
2023-12-16T12:07:19.040Z,99969.25
2023-12-16T12:09:46.760Z,99976.22
2023-12-16T12:12:15.071Z,99976.91
2023-12-16T12:14:46.641Z,99979.47
2023-12-16T12:17:15.778Z,99972.22
2023-12-16T12:19:44.838Z,99962.34
2023-12-16T12:22:12.901Z,99966.56
2023-12-16T12:24:40.716Z,99955.16
2023-12-16T12:27:09.661Z,99949.19
2023-12-16T12:29:56.760Z,99951.56
2023-12-16T12:32:26.709Z,99940.59
2023-12-16T12:35:04.459Z,99933.44
2023-12-16T12:37:37.883Z,99927.63
2023-12-16T12:40:16.329Z,99920.31
2023-12-16T12:42:45.926Z,99926.72
2023-12-16T12:45:25.333Z,99924.16
2023-12-16T12:47:55.111Z,99928.78
2023-12-16T12:50:23.733Z,99919.72
2023-12-16T12:53:18.424Z,99912.00
2023-12-16T12:55:39.442Z,99904.09
2023-12-16T12:58:14.428Z,99905.13
2023-12-16T13:00:47.392Z,99903.47
2023-12-16T13:03:16.867Z,99896.25
2023-12-16T13:05:44.801Z,99885.91
2023-12-16T13:08:15.020Z,99885.81
2023-12-16T13:10:43.515Z,99879.66
2023-12-16T13:13:10.938Z,99880.72
2023-12-16T13:15:53.563Z,99874.59
2023-12-16T13:18:27.394Z,99872.94
2023-12-16T13:20:56.014Z,99874.94
2023-12-16T13:23:23.505Z,99870.03
2023-12-16T13:25:51.428Z,99871.78
2023-12-16T13:28:19.517Z,99862.59
2023-12-16T13:30:47.548Z,99860.34
2023-12-16T13:33:15.169Z,99857.09
2023-12-16T13:35:48.943Z,99847.22
2023-12-16T13:38:16.423Z,99857.22
2023-12-16T13:40:49.662Z,99854.22
2023-12-16T13:43:20.764Z,99853.28
2023-12-16T13:45:48.883Z,99857.09
2023-12-16T13:48:16.570Z,99856.69
2023-12-16T13:50:45.816Z,99860.50
2023-12-16T13:53:13.390Z,99857.59
2023-12-16T13:55:40.836Z,99867.13
2023-12-16T13:58:08.404Z,99858.34
2023-12-16T14:00:36.082Z,99851.25
2023-12-16T14:03:03.884Z,99862.09
2023-12-16T14:05:31.705Z,99866.88
2023-12-16T14:08:01.016Z,99864.13
2023-12-16T14:10:28.596Z,99861.72
2023-12-16T14:12:55.834Z,99861.63
2023-12-16T14:15:23.218Z,99862.91
2023-12-16T14:17:50.604Z,99853.56
2023-12-16T14:20:17.876Z,99851.34
2023-12-16T14:22:45.284Z,99847.78
2023-12-16T14:25:14.714Z,99861.09
2023-12-16T14:27:42.313Z,99855.75
2023-12-16T14:30:09.966Z,99854.72
2023-12-16T14:32:37.670Z,99861.41
2023-12-16T14:35:09.999Z,99871.63
2023-12-16T14:37:37.891Z,99877.22
2023-12-16T14:40:06.978Z,99880.81
2023-12-16T14:42:35.866Z,99879.16
2023-12-16T14:45:03.999Z,99875.28
2023-12-16T14:47:31.584Z,99865.97
2023-12-16T14:49:59.124Z,99866.13
2023-12-16T14:52:26.540Z,99868.25
2023-12-16T14:54:54.182Z,99856.16
2023-12-16T14:57:21.436Z,99845.84
2023-12-16T14:59:50.285Z,99847.28
2023-12-16T15:02:17.662Z,99843.78
2023-12-16T15:04:47.144Z,99838.22
2023-12-16T15:07:14.735Z,99846.34
2023-12-16T15:09:43.755Z,99838.84
2023-12-16T15:12:11.402Z,99826.59
2023-12-16T15:14:39.154Z,99833.88
2023-12-16T15:17:08.022Z,99844.47
2023-12-16T15:19:37.866Z,99830.06
2023-12-16T15:22:05.595Z,99835.84
2023-12-16T15:24:33.021Z,99832.53
2023-12-16T15:27:00.334Z,99818.06
2023-12-16T15:29:27.991Z,99818.91
2023-12-16T15:31:57.082Z,99805.66
2023-12-16T15:34:27.562Z,99809.44
2023-12-16T15:37:03.655Z,99810.69
2023-12-16T15:39:35.980Z,99808.44
2023-12-16T15:42:04.420Z,99807.66
2023-12-16T15:44:32.044Z,99818.16
2023-12-16T15:46:59.261Z,99810.88
2023-12-16T15:49:28.540Z,99811.25
2023-12-16T15:51:56.720Z,99807.28
2023-12-16T15:54:24.169Z,99809.13
2023-12-16T15:56:51.756Z,99805.78
2023-12-16T15:59:19.216Z,99803.53
2023-12-16T16:01:46.459Z,99805.91
2023-12-16T16:04:13.951Z,99809.13
2023-12-16T16:06:42.797Z,99818.38
2023-12-16T16:09:10.923Z,99817.78
2023-12-16T16:11:39.312Z,99815.94
2023-12-16T16:14:06.861Z,99827.72
2023-12-16T16:16:34.353Z,99823.84
2023-12-16T16:19:04.411Z,99827.13
2023-12-16T16:21:33.898Z,99813.03
2023-12-16T16:24:04.268Z,99810.03
2023-12-16T16:26:32.944Z,99805.22
2023-12-16T16:29:02.211Z,99814.28
2023-12-16T16:31:30.272Z,99813.91
2023-12-16T16:33:57.967Z,99806.25
2023-12-16T16:36:25.747Z,99807.78
2023-12-16T16:38:53.891Z,99811.03
2023-12-16T16:41:22.723Z,99814.19
2023-12-16T16:43:50.286Z,99816.53
2023-12-16T16:46:18.214Z,99815.34
2023-12-16T16:48:46.060Z,99816.59
2023-12-16T16:51:13.711Z,99809.44
2023-12-16T16:53:41.179Z,99814.25
2023-12-16T16:56:09.657Z,99807.13
2023-12-16T16:58:38.437Z,99797.44
2023-12-16T17:01:06.694Z,99807.31
2023-12-16T17:03:37.234Z,99819.00
2023-12-16T17:06:06.229Z,99814.16
2023-12-16T17:08:34.178Z,99817.78
2023-12-16T17:11:05.188Z,99815.19
2023-12-16T17:13:32.706Z,99812.16
2023-12-16T17:16:01.334Z,99824.31
2023-12-16T17:18:28.977Z,99827.84
2023-12-16T17:20:56.933Z,99833.75
2023-12-16T17:23:24.473Z,99832.59
2023-12-16T17:25:52.162Z,99833.25
2023-12-16T17:28:19.619Z,99839.88
2023-12-16T17:30:47.093Z,99841.25
2023-12-16T17:33:16.684Z,99834.97
2023-12-16T17:35:44.336Z,99839.56
2023-12-16T17:38:11.594Z,99835.44
2023-12-16T17:40:39.070Z,99831.63
2023-12-16T17:43:06.565Z,99829.38
2023-12-16T17:45:33.803Z,99825.78
2023-12-16T17:48:01.537Z,99825.47
2023-12-16T17:50:30.526Z,99834.13
2023-12-16T17:52:58.189Z,99834.66
2023-12-16T17:55:25.653Z,99827.59
2023-12-16T17:57:52.907Z,99835.72
2023-12-16T18:00:20.549Z,99838.91
2023-12-16T18:02:50.349Z,99834.59
2023-12-16T18:05:19.510Z,99838.44
2023-12-16T18:07:48.516Z,99837.31
2023-12-16T18:10:16.109Z,99833.72
2023-12-16T18:12:43.686Z,99833.97
2023-12-16T18:15:11.217Z,99829.66
2023-12-16T18:17:39.257Z,99835.00
2023-12-16T18:20:09.474Z,99839.09
2023-12-16T18:22:37.023Z,99847.84
2023-12-16T18:25:06.341Z,99847.53
2023-12-16T18:27:33.786Z,99853.56
2023-12-16T18:30:01.289Z,99845.59
2023-12-16T18:32:28.814Z,99844.25
2023-12-16T18:34:56.102Z,99855.94
2023-12-16T18:37:23.486Z,99856.75
2023-12-16T18:39:50.909Z,99864.06
2023-12-16T18:42:19.663Z,99872.50
2023-12-16T18:44:47.175Z,99874.69
2023-12-16T18:47:14.640Z,99874.13
2023-12-16T18:49:43.967Z,99852.44
2023-12-16T18:52:11.412Z,99865.19
2023-12-16T18:54:38.884Z,99862.44
2023-12-16T18:57:06.902Z,99862.75
2023-12-16T18:59:37.614Z,99874.94
2023-12-16T19:02:05.116Z,99866.53
2023-12-16T19:04:32.854Z,99874.75
2023-12-16T19:07:00.385Z,99865.53
2023-12-16T19:09:27.786Z,99866.03
2023-12-16T19:11:56.238Z,99862.22
2023-12-16T19:14:24.821Z,99854.31
2023-12-16T19:16:54.020Z,99853.22
2023-12-16T19:19:21.572Z,99850.50
2023-12-16T19:21:49.049Z,99849.97
2023-12-16T19:24:16.521Z,99864.13
2023-12-16T19:26:43.880Z,99862.22
2023-12-16T19:29:11.819Z,99855.25
2023-12-16T19:31:39.250Z,99861.22
2023-12-16T19:34:08.061Z,99863.56
2023-12-16T19:36:35.619Z,99877.41
2023-12-16T19:39:03.467Z,99887.91
2023-12-16T19:41:31.568Z,99893.59
2023-12-16T19:43:59.382Z,99895.50
2023-12-16T19:46:26.760Z,99894.03
2023-12-16T19:48:54.383Z,99901.06
2023-12-16T19:51:23.269Z,99915.03
2023-12-16T19:53:50.815Z,99918.22
2023-12-16T19:56:18.129Z,99916.47
2023-12-16T19:58:45.621Z,99910.56
2023-12-16T20:01:13.044Z,99913.13
2023-12-16T20:03:40.609Z,99912.41
2023-12-16T20:06:08.844Z,99910.88
2023-12-16T20:08:37.938Z,99921.63
2023-12-16T20:11:10.523Z,99929.03
2023-12-16T20:13:39.423Z,99926.09
2023-12-16T20:16:07.281Z,99933.28
2023-12-16T20:18:34.745Z,99935.03
2023-12-16T20:21:02.189Z,99933.28
2023-12-16T20:23:29.626Z,99941.03
2023-12-16T20:25:58.639Z,99945.16
2023-12-16T20:28:26.992Z,99943.50
2023-12-16T20:30:54.444Z,99944.31
2023-12-16T20:33:22.020Z,99936.34
2023-12-16T20:35:49.643Z,99922.44
2023-12-16T20:38:35.648Z,99929.97
2023-12-16T20:41:05.140Z,99925.75
2023-12-16T20:43:32.702Z,99910.56
2023-12-16T20:46:00.232Z,99908.31
2023-12-16T20:48:27.772Z,99905.13
2023-12-16T20:50:55.378Z,99899.09
2023-12-16T20:53:22.860Z,99903.84
2023-12-16T20:55:50.142Z,99894.38
2023-12-16T20:58:19.682Z,99903.31
2023-12-16T21:00:47.152Z,99896.50
2023-12-16T21:03:14.578Z,99898.41
2023-12-16T21:05:42.221Z,99896.00
2023-12-16T21:08:10.319Z,99886.22
2023-12-16T21:10:37.826Z,99881.81
2023-12-16T21:13:09.341Z,99878.28
2023-12-16T21:15:38.583Z,99872.50
2023-12-16T21:18:06.359Z,99877.66
2023-12-16T21:20:33.988Z,99870.28
2023-12-16T21:23:01.433Z,99881.69
2023-12-16T21:25:28.748Z,99878.13
2023-12-16T21:27:56.281Z,99873.03
2023-12-16T21:30:25.016Z,99872.16
2023-12-16T21:32:54.746Z,99870.38
2023-12-16T21:35:22.434Z,99859.13
2023-12-16T21:37:49.858Z,99866.31
2023-12-16T21:40:17.205Z,99868.56
2023-12-16T21:42:44.579Z,99872.72
2023-12-16T21:45:12.477Z,99882.53
2023-12-16T21:47:40.277Z,99884.25
2023-12-16T21:50:10.517Z,99882.44
2023-12-16T21:52:37.978Z,99880.09
2023-12-16T21:55:05.650Z,99872.53
2023-12-16T21:57:33.114Z,99884.94
2023-12-16T22:00:00.489Z,99878.50
2023-12-16T22:02:28.119Z,99879.19
2023-12-16T22:04:55.378Z,99874.19
2023-12-16T22:07:24.202Z,99872.47
2023-12-16T22:09:51.764Z,99870.19
2023-12-16T22:12:19.120Z,99880.97
2023-12-16T22:14:47.348Z,99886.34
2023-12-16T22:17:14.797Z,99878.06
2023-12-16T22:19:53.848Z,99874.19
2023-12-16T22:22:21.221Z,99885.22
2023-12-16T22:24:49.994Z,99876.19
2023-12-16T22:27:17.735Z,99878.22
2023-12-16T22:29:45.416Z,99869.19
2023-12-16T22:32:12.866Z,99859.66
2023-12-16T22:34:40.290Z,99856.84
2023-12-16T22:37:07.719Z,99857.34
2023-12-16T22:39:35.162Z,99864.09
2023-12-16T22:42:04.524Z,99866.44
2023-12-16T22:44:31.961Z,99864.22
2023-12-16T22:47:00.513Z,99872.59
2023-12-16T22:49:28.132Z,99883.97
2023-12-16T22:51:55.737Z,99880.34
2023-12-16T22:54:23.406Z,99889.50
2023-12-16T22:56:50.951Z,99902.50
2023-12-16T22:59:19.756Z,99887.78
2023-12-16T23:01:47.584Z,99869.28
2023-12-16T23:04:14.937Z,99874.09
2023-12-16T23:06:42.537Z,99866.47
2023-12-16T23:09:09.742Z,99864.00
2023-12-16T23:11:37.420Z,99866.94
2023-12-16T23:14:04.795Z,99866.59
2023-12-16T23:16:33.516Z,99860.38
2023-12-16T23:19:01.128Z,99866.25
2023-12-16T23:21:28.615Z,99853.19
2023-12-16T23:23:56.216Z,99859.69
2023-12-16T23:26:23.545Z,99859.94
2023-12-16T23:28:51.340Z,99853.09
2023-12-16T23:31:18.806Z,99852.50
2023-12-16T23:33:47.785Z,99853.59
2023-12-16T23:36:15.390Z,99855.69
2023-12-16T23:38:43.008Z,99846.16
2023-12-16T23:41:17.145Z,99845.38
2023-12-16T23:43:44.633Z,99843.94
2023-12-16T23:46:13.626Z,99848.78
2023-12-16T23:48:41.873Z,99845.72
2023-12-16T23:51:12.053Z,99849.03
2023-12-16T23:53:44.209Z,99856.00
2023-12-16T23:56:11.632Z,99861.41
2023-12-16T23:58:39.071Z,99863.53
